createdAt,value
2018-07-10T00:02:23.965Z,101203.13
2018-07-10T00:07:11.140Z,101201.34
2018-07-10T00:11:54.579Z,101198.05
2018-07-10T00:14:21.885Z,101195.79
2018-07-10T00:16:49.486Z,101189.81
2018-07-10T00:19:16.825Z,101193.42
2018-07-10T00:21:44.454Z,101191.17
2018-07-10T00:24:11.640Z,101185.16
2018-07-10T00:26:38.766Z,101186.84
2018-07-10T00:29:05.911Z,101185.72
2018-07-10T00:31:33.062Z,101192.30
2018-07-10T00:34:00.196Z,101186.76
2018-07-10T00:36:27.454Z,101185.60
2018-07-10T00:39:03.478Z,101189.23
2018-07-10T00:41:32.421Z,101194.70
2018-07-10T00:44:00.540Z,101187.39
2018-07-10T00:46:30.247Z,101185.31
2018-07-10T00:48:57.915Z,101182.80
2018-07-10T00:51:25.750Z,101175.34
2018-07-10T00:53:53.208Z,101164.98
2018-07-10T00:56:20.704Z,101163.83
2018-07-10T00:58:50.095Z,101156.98
2018-07-10T01:01:17.802Z,101161.74
2018-07-10T01:03:45.007Z,101155.77
2018-07-10T01:06:12.300Z,101163.64
2018-07-10T01:08:39.451Z,101172.77
2018-07-10T01:11:09.508Z,101176.45
2018-07-10T01:13:38.292Z,101162.77
2018-07-10T01:16:05.441Z,101167.42
2018-07-10T01:18:40.746Z,101162.11
2018-07-10T01:21:09.672Z,101157.62
2018-07-10T01:23:38.270Z,101159.51
2018-07-10T01:26:05.575Z,101169.61
2018-07-10T01:28:32.812Z,101170.70
2018-07-10T01:31:00.109Z,101167.88
2018-07-10T01:33:30.667Z,101158.34
2018-07-10T01:36:01.907Z,101149.30
2018-07-10T01:38:29.091Z,101145.52
2018-07-10T01:40:56.364Z,101140.23
2018-07-10T01:43:23.556Z,101143.75
2018-07-10T01:45:50.736Z,101137.66
2018-07-10T01:48:17.945Z,101136.55
2018-07-10T01:50:45.056Z,101139.16
2018-07-10T01:53:12.183Z,101129.50
2018-07-10T01:55:39.385Z,101122.27
2018-07-10T01:58:06.571Z,101123.73
2018-07-10T02:00:45.612Z,101123.38
2018-07-10T02:03:13.185Z,101105.78
2018-07-10T02:05:40.959Z,101117.92
2018-07-10T02:08:08.232Z,101105.93
2018-07-10T02:10:35.925Z,101101.81
2018-07-10T02:13:03.157Z,101101.75
2018-07-10T02:15:30.515Z,101098.02
2018-07-10T02:17:59.151Z,101089.52
2018-07-10T02:20:31.031Z,101088.65
2018-07-10T02:22:59.710Z,101084.35
2018-07-10T02:25:27.378Z,101077.87
2018-07-10T02:27:55.429Z,101076.03
2018-07-10T02:30:22.600Z,101075.19
2018-07-10T02:32:49.726Z,101074.98
2018-07-10T02:35:17.855Z,101067.16
2018-07-10T02:37:45.364Z,101074.39
2018-07-10T02:40:13.276Z,101087.70
2018-07-10T02:42:40.626Z,101091.80
2018-07-10T02:45:08.357Z,101094.22
2018-07-10T02:47:35.859Z,101095.59
2018-07-10T02:50:03.210Z,101099.67
2018-07-10T02:52:38.799Z,101106.65
2018-07-10T02:55:07.616Z,101112.31
2018-07-10T02:57:35.654Z,101113.66
2018-07-10T03:00:03.353Z,101112.96
2018-07-10T03:02:30.859Z,101117.30
2018-07-10T03:05:01.720Z,101115.79
2018-07-10T03:07:29.595Z,101120.05
2018-07-10T03:09:58.189Z,101109.22
2018-07-10T03:12:26.984Z,101111.59
2018-07-10T03:14:55.650Z,101103.09
2018-07-10T03:17:22.792Z,101105.38
2018-07-10T03:19:51.048Z,101113.08
2018-07-10T03:22:19.233Z,101112.87
2018-07-10T03:24:46.702Z,101109.53
2018-07-10T03:27:13.856Z,101108.94
2018-07-10T03:29:41.128Z,101094.32
2018-07-10T03:32:08.482Z,101094.00
2018-07-10T03:34:36.217Z,101086.60
2018-07-10T03:37:04.407Z,101090.98
2018-07-10T03:39:31.558Z,101092.95
2018-07-10T03:41:59.006Z,101088.64
2018-07-10T03:44:27.940Z,101084.54
2018-07-10T03:46:55.105Z,101076.69
2018-07-10T03:49:22.395Z,101077.75
2018-07-10T03:51:51.006Z,101092.81
2018-07-10T03:54:18.283Z,101095.88
2018-07-10T03:56:46.200Z,101093.95
2018-07-10T03:59:13.575Z,101101.67
2018-07-10T04:01:40.753Z,101105.47
2018-07-10T04:04:08.491Z,101107.48
2018-07-10T04:06:35.797Z,101118.45
2018-07-10T04:09:04.871Z,101121.27
2018-07-10T04:11:33.433Z,101110.80
2018-07-10T04:14:00.665Z,101108.44
2018-07-10T04:16:27.794Z,101107.98
2018-07-10T04:18:54.920Z,101104.05
2018-07-10T04:21:27.241Z,101106.60
2018-07-10T04:24:02.720Z,101105.41
2018-07-10T04:26:30.450Z,101107.91
2018-07-10T04:29:05.781Z,101115.67
2018-07-10T04:31:37.637Z,101114.93
2018-07-10T04:34:06.077Z,101117.48
2018-07-10T04:36:35.420Z,101129.87
2018-07-10T04:39:03.084Z,101133.16
2018-07-10T04:41:32.016Z,101130.86
2018-07-10T04:44:06.625Z,101129.58
2018-07-10T04:46:37.093Z,101135.75
2018-07-10T04:49:09.709Z,101129.34
2018-07-10T04:51:44.557Z,101127.05
2018-07-10T04:54:25.143Z,101120.21
2018-07-10T04:58:01.717Z,101113.48
2018-07-10T05:00:31.829Z,101107.06
2018-07-10T05:02:59.850Z,101117.37
2018-07-10T05:05:27.743Z,101115.53
2018-07-10T05:07:55.192Z,101115.63
2018-07-10T05:10:22.666Z,101124.20
2018-07-10T05:12:49.906Z,101123.02
2018-07-10T05:15:17.654Z,101114.40
2018-07-10T05:17:49.733Z,101122.36
2018-07-10T05:20:17.673Z,101132.05
2018-07-10T05:22:45.380Z,101132.20
2018-07-10T05:25:14.717Z,101125.00
2018-07-10T05:27:41.957Z,101127.56
2018-07-10T05:30:09.328Z,101119.48
2018-07-10T05:32:36.857Z,101118.91
2018-07-10T05:35:04.667Z,101112.51
2018-07-10T05:37:34.806Z,101110.55
2018-07-10T05:40:04.834Z,101120.23
2018-07-10T05:42:33.583Z,101123.09
2018-07-10T05:45:01.744Z,101116.76
2018-07-10T05:47:30.950Z,101114.33
2018-07-10T05:50:05.139Z,101120.16
2018-07-10T05:52:33.242Z,101117.92
2018-07-10T05:55:02.338Z,101124.61
2018-07-10T05:57:31.657Z,101123.70
2018-07-10T06:00:00.150Z,101122.28
2018-07-10T06:02:28.226Z,101124.08
2018-07-10T06:04:57.114Z,101126.27
2018-07-10T06:07:26.297Z,101128.16
2018-07-10T06:09:53.922Z,101130.20
2018-07-10T06:12:23.986Z,101127.30
2018-07-10T06:14:54.331Z,101126.95
2018-07-10T06:17:24.588Z,101130.20
2018-07-10T06:19:53.917Z,101123.09
2018-07-10T06:22:24.970Z,101126.80
2018-07-10T06:24:55.689Z,101122.16
2018-07-10T06:27:25.239Z,101119.22
2018-07-10T06:30:09.764Z,101116.62
2018-07-10T06:33:00.328Z,101112.67
2018-07-10T06:35:45.738Z,101115.23
2018-07-10T06:38:16.207Z,101123.72
2018-07-10T06:40:47.624Z,101134.06
2018-07-10T06:43:55.906Z,101130.48
2018-07-10T06:46:34.428Z,101130.27
2018-07-10T06:49:39.434Z,101126.15
2018-07-10T06:52:12.254Z,101130.78
2018-07-10T06:55:55.051Z,101129.11
2018-07-10T06:58:25.820Z,101118.57
2018-07-10T07:00:56.078Z,101118.73
2018-07-10T07:03:26.095Z,101123.08
2018-07-10T07:05:55.258Z,101135.16
2018-07-10T07:08:24.010Z,101133.19
2018-07-10T07:10:52.352Z,101138.10
2018-07-10T07:13:22.119Z,101136.06
2018-07-10T07:15:49.797Z,101133.26
2018-07-10T07:18:17.010Z,101133.33
2018-07-10T07:20:44.151Z,101134.77
2018-07-10T07:23:11.299Z,101139.86
2018-07-10T07:25:38.455Z,101137.27
2018-07-10T07:28:05.709Z,101135.33
2018-07-10T07:30:32.921Z,101139.23
2018-07-10T07:33:01.648Z,101141.56
2018-07-10T07:35:29.123Z,101141.59
2018-07-10T07:37:56.656Z,101142.95
2018-07-10T07:40:24.373Z,101140.34
2018-07-10T07:42:51.905Z,101130.11
2018-07-10T07:45:20.602Z,101125.58
2018-07-10T07:47:48.104Z,101124.36
2018-07-10T07:50:15.210Z,101130.73
2018-07-10T07:52:42.373Z,101125.34
2018-07-10T07:55:13.296Z,101121.13
2018-07-10T07:57:40.436Z,101120.97
2018-07-10T08:00:07.560Z,101131.02
2018-07-10T08:02:35.322Z,101135.94
2018-07-10T08:05:02.567Z,101131.94
2018-07-10T08:07:29.762Z,101127.61
2018-07-10T08:09:57.710Z,101133.02
2018-07-10T08:12:26.961Z,101141.68
2018-07-10T08:14:54.857Z,101140.19
2018-07-10T08:17:22.914Z,101141.00
2018-07-10T08:19:50.285Z,101137.81
2018-07-10T08:22:17.524Z,101136.13
2018-07-10T08:24:44.848Z,101136.30
2018-07-10T08:27:12.003Z,101136.87
2018-07-10T08:29:40.044Z,101138.48
2018-07-10T08:32:07.269Z,101129.86
2018-07-10T08:34:34.477Z,101137.74
2018-07-10T08:37:01.622Z,101135.94
2018-07-10T08:39:29.181Z,101128.67
2018-07-10T08:41:56.340Z,101130.97
2018-07-10T08:44:23.787Z,101127.53
2018-07-10T08:46:55.120Z,101122.26
2018-07-10T08:49:23.965Z,101125.30
2018-07-10T08:51:52.538Z,101125.59
2018-07-10T08:54:20.775Z,101128.46
2018-07-10T08:56:47.958Z,101126.41
2018-07-10T08:59:15.432Z,101122.59
2018-07-10T09:01:43.243Z,101124.13
2018-07-10T09:04:10.391Z,101118.67
2018-07-10T09:06:37.581Z,101117.77
2018-07-10T09:09:05.197Z,101116.95
2018-07-10T09:11:32.338Z,101121.39
2018-07-10T09:13:59.607Z,101119.08
2018-07-10T09:16:26.858Z,101117.69
2018-07-10T09:18:54.341Z,101116.98
2018-07-10T09:21:22.191Z,101108.49
2018-07-10T09:23:49.495Z,101106.12
2018-07-10T09:26:17.591Z,101109.09
2018-07-10T09:28:44.790Z,101097.73
2018-07-10T09:31:11.996Z,101100.44
2018-07-10T09:33:39.165Z,101090.61
2018-07-10T09:36:07.057Z,101096.90
2018-07-10T09:38:35.964Z,101101.23
2018-07-10T09:41:04.631Z,101096.12
2018-07-10T09:43:32.652Z,101097.29
2018-07-10T09:45:59.915Z,101094.97
2018-07-10T09:48:33.239Z,101102.72
2018-07-10T09:51:00.395Z,101098.83
2018-07-10T09:53:27.655Z,101098.23
2018-07-10T09:55:56.313Z,101093.66
2018-07-10T09:58:23.737Z,101096.39
2018-07-10T10:00:58.836Z,101089.56
2018-07-10T10:03:26.126Z,101095.71
2018-07-10T10:05:53.446Z,101096.00
2018-07-10T10:08:20.650Z,101093.14
2018-07-10T10:10:47.863Z,101105.55
2018-07-10T10:13:15.265Z,101095.92
2018-07-10T10:15:42.775Z,101103.62
2018-07-10T10:18:10.057Z,101103.08
2018-07-10T10:20:38.876Z,101098.53
2018-07-10T10:23:06.061Z,101100.98
2018-07-10T10:25:36.529Z,101104.17
2018-07-10T10:28:04.287Z,101110.72
2018-07-10T10:30:31.473Z,101109.38
2018-07-10T10:32:58.813Z,101102.30
2018-07-10T10:35:26.129Z,101103.23
2018-07-10T10:37:53.551Z,101099.23
2018-07-10T10:40:21.044Z,101100.55
2018-07-10T10:42:48.366Z,101098.70
2018-07-10T10:45:15.740Z,101095.34
2018-07-10T10:47:43.065Z,101103.28
2018-07-10T10:50:10.250Z,101112.81
2018-07-10T10:52:37.515Z,101105.09
2018-07-10T10:55:04.971Z,101101.37
2018-07-10T10:57:37.106Z,101098.14
2018-07-10T11:00:04.734Z,101104.87
2018-07-10T11:02:31.926Z,101101.02
2018-07-10T11:04:59.894Z,101104.89
2018-07-10T11:07:28.375Z,101100.45
2018-07-10T11:09:55.695Z,101108.11
2018-07-10T11:12:23.495Z,101099.66
2018-07-10T11:14:50.970Z,101112.90
2018-07-10T11:17:27.673Z,101112.52
2018-07-10T11:20:04.286Z,101123.19
2018-07-10T11:22:31.492Z,101124.36
2018-07-10T11:25:05.382Z,101126.27
2018-07-10T11:27:46.679Z,101116.20
2018-07-10T11:30:15.076Z,101117.31
2018-07-10T11:32:42.214Z,101112.03
2018-07-10T11:35:09.380Z,101112.17
2018-07-10T11:37:37.411Z,101111.55
2018-07-10T11:40:05.666Z,101117.00
2018-07-10T11:42:34.007Z,101119.91
2018-07-10T11:45:01.272Z,101108.90
2018-07-10T11:47:28.767Z,101115.66
2018-07-10T11:49:56.645Z,101115.02
2018-07-10T11:52:24.288Z,101115.92
2018-07-10T11:54:52.561Z,101117.06
2018-07-10T11:57:20.187Z,101111.08
2018-07-10T11:59:50.748Z,101117.76
2018-07-10T12:02:19.860Z,101118.05
2018-07-10T12:04:47.218Z,101119.05
2018-07-10T12:07:14.408Z,101119.61
2018-07-10T12:09:54.753Z,101118.02
2018-07-10T12:12:22.730Z,101120.26
2018-07-10T12:14:50.784Z,101123.33
2018-07-10T12:17:18.148Z,101130.97
2018-07-10T12:19:45.415Z,101129.42
2018-07-10T12:22:13.413Z,101129.25
2018-07-10T12:24:42.283Z,101129.63
2018-07-10T12:27:14.109Z,101131.36
2018-07-10T12:29:41.507Z,101118.70
2018-07-10T12:32:09.013Z,101115.16
2018-07-10T12:34:36.254Z,101110.61
2018-07-10T12:37:03.489Z,101118.64
2018-07-10T12:39:30.913Z,101117.38
2018-07-10T12:41:58.353Z,101118.49
2018-07-10T12:44:25.517Z,101112.50
2018-07-10T12:46:52.669Z,101123.19
2018-07-10T12:49:20.036Z,101125.39
2018-07-10T12:51:48.252Z,101133.23
2018-07-10T12:54:15.508Z,101124.28
2018-07-10T12:56:42.736Z,101132.70
2018-07-10T12:59:09.951Z,101127.11
2018-07-10T13:01:42.854Z,101131.73
2018-07-10T13:04:10.979Z,101129.44
2018-07-10T13:06:38.836Z,101128.50
2018-07-10T13:09:06.522Z,101132.52
2018-07-10T13:11:33.827Z,101138.11
2018-07-10T13:14:01.151Z,101138.48
2018-07-10T13:16:28.431Z,101136.94
2018-07-10T13:18:55.729Z,101137.88
2018-07-10T13:21:22.964Z,101134.65
2018-07-10T13:23:50.516Z,101132.39
2018-07-10T13:26:17.744Z,101132.81
2018-07-10T13:28:45.841Z,101135.48
2018-07-10T13:31:13.513Z,101133.75
2018-07-10T13:33:40.707Z,101133.59
2018-07-10T13:36:08.074Z,101128.33
2018-07-10T13:38:38.219Z,101127.98
2018-07-10T13:41:09.263Z,101123.12
2018-07-10T13:43:37.031Z,101116.34
2018-07-10T13:46:05.193Z,101113.42
2018-07-10T13:48:33.493Z,101110.48
2018-07-10T13:51:01.318Z,101120.06
2018-07-10T13:53:28.664Z,101118.69
2018-07-10T13:55:55.867Z,101123.58
2018-07-10T13:58:25.952Z,101123.17
2018-07-10T14:01:05.746Z,101119.02
2018-07-10T14:03:34.247Z,101114.59
2018-07-10T14:06:02.517Z,101112.40
2018-07-10T14:08:30.333Z,101112.43
2018-07-10T14:10:58.770Z,101104.39
2018-07-10T14:13:26.109Z,101102.28
2018-07-10T14:15:53.267Z,101092.88
2018-07-10T14:18:22.350Z,101094.39
2018-07-10T14:21:08.521Z,101092.31
2018-07-10T14:23:36.407Z,101093.36
2018-07-10T14:26:04.372Z,101094.33
2018-07-10T14:28:32.106Z,101084.84
2018-07-10T14:30:59.320Z,101085.93
2018-07-10T14:33:26.774Z,101076.39
2018-07-10T14:35:54.233Z,101075.26
2018-07-10T14:38:25.975Z,101077.55
2018-07-10T14:40:54.045Z,101081.48
2018-07-10T14:43:29.625Z,101083.84
2018-07-10T14:46:06.976Z,101080.94
2018-07-10T14:48:47.358Z,101084.06
2018-07-10T14:51:17.920Z,101077.59
2018-07-10T14:53:45.072Z,101081.06
2018-07-10T14:56:12.324Z,101081.95
2018-07-10T14:58:40.566Z,101076.28
2018-07-10T15:01:07.838Z,101082.04
2018-07-10T15:03:35.668Z,101083.34
2018-07-10T15:06:03.747Z,101077.05
2018-07-10T15:08:30.929Z,101080.38
2018-07-10T15:10:58.180Z,101081.34
2018-07-10T15:13:25.480Z,101077.95
2018-07-10T15:15:58.129Z,101073.64
2018-07-10T15:18:31.108Z,101064.05
2018-07-10T15:20:58.374Z,101069.27
2018-07-10T15:23:25.627Z,101066.95
2018-07-10T15:25:52.816Z,101062.47
2018-07-10T15:28:20.219Z,101052.36
2018-07-10T15:30:47.418Z,101045.70
2018-07-10T15:33:17.429Z,101051.38
2018-07-10T15:35:44.735Z,101052.75
2018-07-10T15:38:12.103Z,101049.39
2018-07-10T15:40:41.754Z,101044.68
2018-07-10T15:43:09.447Z,101045.70
2018-07-10T15:45:36.895Z,101047.19
2018-07-10T15:48:04.063Z,101042.33
2018-07-10T15:50:33.068Z,101044.33
2018-07-10T15:53:00.545Z,101040.63
2018-07-10T15:55:27.775Z,101041.96
2018-07-10T15:57:55.440Z,101040.53
2018-07-10T16:00:23.562Z,101034.50
2018-07-10T16:02:51.693Z,101038.39
2018-07-10T16:05:20.763Z,101036.25
2018-07-10T16:07:48.042Z,101029.72
2018-07-10T16:10:15.208Z,101033.75
2018-07-10T16:12:44.678Z,101035.19
2018-07-10T16:15:11.932Z,101033.87
2018-07-10T16:17:39.109Z,101029.89
2018-07-10T16:20:09.752Z,101016.98
2018-07-10T16:22:41.312Z,101025.53
2018-07-10T16:25:21.177Z,101028.83
2018-07-10T16:27:49.647Z,101031.73
2018-07-10T16:30:21.077Z,101038.05
2018-07-10T16:32:48.532Z,101036.14
2018-07-10T16:35:19.004Z,101036.22
2018-07-10T16:37:46.896Z,101026.55
2018-07-10T16:40:14.427Z,101024.84
2018-07-10T16:42:48.644Z,101031.66
2018-07-10T16:45:19.909Z,101033.78
2018-07-10T16:47:53.920Z,101027.13
2018-07-10T16:50:23.843Z,101030.79
2018-07-10T16:52:56.287Z,101041.67
2018-07-10T16:55:25.496Z,101030.30
2018-07-10T16:57:53.496Z,101034.58
2018-07-10T17:00:23.909Z,101035.16
2018-07-10T17:02:52.762Z,101042.25
2018-07-10T17:05:21.582Z,101043.17
2018-07-10T17:07:50.646Z,101043.20
2018-07-10T17:10:18.413Z,101048.02
2018-07-10T17:12:45.542Z,101055.02
2018-07-10T17:15:12.926Z,101056.42
2018-07-10T17:17:40.109Z,101060.91
2018-07-10T17:20:11.849Z,101065.32
2018-07-10T17:22:39.433Z,101072.52
2018-07-10T17:25:06.948Z,101072.03
2018-07-10T17:27:35.069Z,101081.37
2018-07-10T17:30:03.492Z,101081.36
2018-07-10T17:32:31.762Z,101081.77
2018-07-10T17:34:59.318Z,101085.68
2018-07-10T17:37:26.963Z,101085.09
2018-07-10T17:39:55.113Z,101090.38
2018-07-10T17:42:22.404Z,101091.27
2018-07-10T17:44:49.916Z,101091.01
2018-07-10T17:47:17.156Z,101093.98
2018-07-10T17:49:44.493Z,101091.03
2018-07-10T17:52:12.492Z,101095.08
2018-07-10T17:54:39.724Z,101096.27
2018-07-10T17:57:06.919Z,101092.17
2018-07-10T17:59:34.244Z,101088.87
2018-07-10T18:02:01.821Z,101089.29
2018-07-10T18:04:30.251Z,101097.77
2018-07-10T18:06:58.450Z,101101.84
2018-07-10T18:09:25.897Z,101090.08
2018-07-10T18:11:53.796Z,101090.02
2018-07-10T18:14:21.493Z,101093.08
2018-07-10T18:16:49.600Z,101096.11
2018-07-10T18:19:16.826Z,101095.53
2018-07-10T18:21:44.066Z,101092.87
2018-07-10T18:24:11.224Z,101099.89
2018-07-10T18:26:38.367Z,101100.61
2018-07-10T18:29:06.700Z,101101.63
2018-07-10T18:31:33.844Z,101098.64
2018-07-10T18:34:01.006Z,101089.55
2018-07-10T18:36:28.502Z,101093.54
2018-07-10T18:38:56.513Z,101091.03
2018-07-10T18:41:23.752Z,101097.48
2018-07-10T18:43:51.061Z,101091.95
2018-07-10T18:46:20.361Z,101099.27
2018-07-10T18:48:47.640Z,101099.20
2018-07-10T18:51:20.694Z,101106.91
2018-07-10T18:53:48.762Z,101104.37
2018-07-10T18:56:15.893Z,101098.77
2018-07-10T18:58:58.976Z,101101.59
2018-07-10T19:01:35.455Z,101106.91
2018-07-10T19:04:03.632Z,101104.25
2018-07-10T19:06:30.745Z,101100.09
2018-07-10T19:08:58.083Z,101103.05
2018-07-10T19:11:26.843Z,101093.88
2018-07-10T19:13:55.437Z,101092.88
2018-07-10T19:16:23.718Z,101097.87
2018-07-10T19:18:52.644Z,101095.94
2018-07-10T19:21:29.969Z,101100.22
2018-07-10T19:24:00.718Z,101096.80
2018-07-10T19:26:29.720Z,101091.24
2018-07-10T19:29:09.765Z,101097.39
2018-07-10T19:31:37.689Z,101098.11
2018-07-10T19:34:04.978Z,101095.96
2018-07-10T19:36:32.222Z,101088.52
2018-07-10T19:39:00.835Z,101094.89
2018-07-10T19:41:28.588Z,101088.00
2018-07-10T19:43:55.846Z,101090.27
2018-07-10T19:46:23.344Z,101091.66
2018-07-10T19:48:53.914Z,101103.77
2018-07-10T19:51:25.020Z,101097.52
2018-07-10T19:54:10.847Z,101099.48
2018-07-10T19:56:38.759Z,101090.25
2018-07-10T19:59:07.010Z,101088.61
2018-07-10T20:01:43.387Z,101092.45
2018-07-10T20:04:14.380Z,101089.68
2018-07-10T20:07:10.964Z,101096.47
2018-07-10T20:09:43.855Z,101085.91
2018-07-10T20:12:12.884Z,101077.98
2018-07-10T20:14:49.038Z,101073.59
2018-07-10T20:17:17.617Z,101075.77
2018-07-10T20:20:07.459Z,101080.07
2018-07-10T20:24:48.648Z,101077.53
2018-07-10T20:27:23.549Z,101078.31
2018-07-10T20:30:10.041Z,101075.91
2018-07-10T20:32:41.772Z,101072.81
2018-07-10T20:35:18.000Z,101076.54
2018-07-10T20:37:48.025Z,101076.50
2018-07-10T20:40:30.744Z,101080.73
2018-07-10T20:42:57.931Z,101078.34
2018-07-10T20:45:25.831Z,101080.83
2018-07-10T20:47:55.473Z,101075.38
2018-07-10T20:50:36.679Z,101073.58
2018-07-10T20:54:14.678Z,101073.44
2018-07-10T20:56:50.569Z,101067.16
2018-07-10T20:59:22.991Z,101070.22
2018-07-10T21:01:52.851Z,101071.30
2018-07-10T21:04:27.657Z,101065.84
2018-07-10T21:06:58.787Z,101066.35
2018-07-10T21:09:39.049Z,101066.20
2018-07-10T21:12:09.567Z,101066.09
2018-07-10T21:15:17.339Z,101072.83
2018-07-10T21:20:02.561Z,101074.97
2018-07-10T21:24:45.406Z,101075.02
2018-07-10T21:27:23.661Z,101069.77
2018-07-10T21:29:56.836Z,101071.77
2018-07-10T21:32:37.207Z,101069.88
2018-07-10T21:35:06.935Z,101072.17
2018-07-10T21:37:48.680Z,101070.69
2018-07-10T21:40:39.411Z,101077.92
2018-07-10T21:43:20.875Z,101085.67
2018-07-10T21:46:56.478Z,101085.53
2018-07-10T21:49:35.097Z,101093.55
2018-07-10T21:52:03.325Z,101099.31
2018-07-10T21:54:30.634Z,101102.72
2018-07-10T21:56:57.926Z,101104.38
2018-07-10T21:59:26.461Z,101100.16
2018-07-10T22:01:55.917Z,101095.27
2018-07-10T22:04:24.876Z,101096.19
2018-07-10T22:06:55.074Z,101098.99
2018-07-10T22:09:23.063Z,101097.05
2018-07-10T22:11:50.188Z,101101.65
2018-07-10T22:14:17.687Z,101100.58
2018-07-10T22:16:44.866Z,101102.41
2018-07-10T22:19:12.157Z,101105.98
2018-07-10T22:21:40.190Z,101103.80
2018-07-10T22:24:07.312Z,101103.62
2018-07-10T22:26:35.203Z,101107.61
2018-07-10T22:29:03.075Z,101103.98
2018-07-10T22:31:36.398Z,101105.83
2018-07-10T22:34:03.575Z,101100.00
2018-07-10T22:36:30.786Z,101100.11
2018-07-10T22:38:59.824Z,101100.98
2018-07-10T22:41:27.871Z,101103.42
2018-07-10T22:43:55.031Z,101104.55
2018-07-10T22:46:24.551Z,101103.74
2018-07-10T22:48:55.131Z,101099.45
2018-07-10T22:51:22.322Z,101095.73
2018-07-10T22:53:49.547Z,101097.20
2018-07-10T22:56:16.994Z,101092.05
2018-07-10T22:58:44.477Z,101087.46
2018-07-10T23:01:11.617Z,101085.21
2018-07-10T23:03:38.776Z,101084.70
2018-07-10T23:06:05.950Z,101080.47
2018-07-10T23:08:34.735Z,101072.57
2018-07-10T23:11:03.584Z,101064.50
2018-07-10T23:13:31.544Z,101067.56
2018-07-10T23:15:59.505Z,101069.05
2018-07-10T23:18:26.700Z,101069.30
2018-07-10T23:20:53.975Z,101078.34
2018-07-10T23:23:21.129Z,101075.17
2018-07-10T23:25:48.531Z,101081.89
2018-07-10T23:28:15.900Z,101084.76
2018-07-10T23:30:44.355Z,101077.78
2018-07-10T23:33:16.437Z,101069.36
2018-07-10T23:35:46.168Z,101062.88
2018-07-10T23:38:22.518Z,101058.20
2018-07-10T23:40:49.737Z,101062.89
2018-07-10T23:43:18.177Z,101060.53
2018-07-10T23:45:45.512Z,101058.63
2018-07-10T23:48:12.668Z,101047.16
2018-07-10T23:50:39.874Z,101038.13
2018-07-10T23:53:52.881Z,101034.59
2018-07-10T23:56:20.779Z,101040.87
2018-07-10T23:58:48.422Z,101033.13
